x

Boston 16 Nm East Of Boston, Ma (44013) Wave Buoy

9:50 - Wed 2nd Sep 2015 All times are EDT. -4 hours from GMT.

  • Sig Wave height 1.0ft
  • Swell Direction
  • Peak Period 3s
  • Average Period 3s
  • Wind
    11mph, 13mph gusts
  • Sea Temp 72°f
  • Air Temp 74°f
  • Sea Pressure 1011.7mb
  • Boston 16 Nm East Of Boston, Ma
  • Boston 16 Nm East Of Boston, Ma

More Historic Weather Station data

Upgrade to MSW Pro to gain access to the past 30 days of data for over 8000 Wavebouys and Weather Stations around the globe.

Join Pro

Comparision Forecast

View Surf forecast
   
mer. 09/02 9:50 1ft 3s 3s 11 13 mph 1011.7mb 72f 74f
8:50 1ft 3s 3s 7 9 mph 1011.9mb 72f 73f
7:50 1ft 3s 3s 11
mph
1011.5mb 72f 75f
6:50 1ft 3s 3s 9
mph
1011.1mb 72f 74f
5:50 1ft 9s 3s 9 11 mph 1011.3mb 73f 74f
4:50 0.7ft  -  4s 9
mph
1011.8mb 73f 74f
3:50 1ft 12s 4s 7 9 mph 1012.4mb 73f 74f
2:50 0.7ft  -  4s 7
mph
1012.8mb 73f 74f
1:50 1ft 5s 4s 7 9 mph 1013.3mb 73f 74f
12:50 1ft 6s 4s 7
mph
1014.1mb 73f 74f
11:50 1ft 5s 4s 2
mph
1014.9mb 72f 73f
10:50 1ft 10s 4s 2
mph
1015.5mb 71f 72f
9:50 1ft 7s 3s 7
mph
1015.7mb 71f 71f
8:50 1ft 2s 3s 9 11 mph 1016mb 70f 69f
7:50 1ft 9s 3s 11 13 mph 1016.1mb 70f 68f
6:50 1.3ft 10s 3s 11
mph
1016mb 70f 68f
5:50 1.3ft 3s 3s 11
mph
1015.8mb 70f 68f
4:50 1.3ft 3s 3s 13 16 mph 1015.7mb 70f 69f
3:50 1.3ft 2s 3s 13 16 mph 1015.9mb 70f 69f
2:50 1.3ft 3s 4s 11 13 mph 1016.2mb 70f 69f
1:50 1.3ft 9s 4s 9 11 mph 1016.7mb 70f 69f
12:50 1.3ft 3s 4s 11 13 mph 1017.2mb 70f 69f
mar. 09/01 11:50 1.3ft 4s 4s 11 13 mph 1017.3mb 70f 70f
10:50 1.3ft 2s 3s 11 13 mph 1017.6mb 70f 70f
9:50 1.3ft 2s 3s 11 13 mph 1017.8mb 70f 70f
8:50 1ft 9s 3s 13 16 mph 1017.6mb 70f 70f
7:50 1.3ft 4s 3s 9 11 mph 1017.2mb 71f 70f
6:50 1.3ft 3s 3s 11 13 mph 1016.9mb 71f 70f
5:50 1ft 2s 3s 13 16 mph 1017.1mb 71f 70f
4:50 1ft 10s 4s 11 13 mph 1017.2mb 71f 70f
3:50 1ft 10s 4s 11 13 mph 1017.2mb 71f 70f
2:50 0.7ft  -  4s 9
mph
1017.7mb 72f 70f
1:50 1ft 10s 4s 7 9 mph 1017.9mb 72f 71f
12:50 1ft 9s 4s 7 9 mph 1018mb 72f 70f
11:50 1ft 10s 4s 4 7 mph 1018.1mb 71f 70f
10:50 1.3ft 10s 4s 7 9 mph 1018.2mb 71f 71f
9:50 1ft 10s 4s 7 9 mph 1017.9mb 70f 70f
8:50 1ft 10s 4s 9 11 mph 1017.3mb 70f 69f
7:50 1ft 9s 4s 11 13 mph 1017.1mb 70f 70f
6:50 1ft 10s 4s 11 13 mph 1016.6mb 70f 69f
5:50 0.7ft  -  6s 9 11 mph 1015.8mb 70f 69f
4:50 0.7ft  -  6s 11 13 mph 1015.1mb 70f 70f
3:50 0.7ft  -  6s 7 9 mph 1014.7mb 70f 71f
2:50 0.7ft  -  6s 7 9 mph 1014.6mb 70f 71f
1:50 0.7ft  -  6s 9
mph
1014.5mb 70f 73f
12:50 1ft 10s 5s 9
mph
1014.3mb 70f 73f
lun. 08/31 11:50 1ft 8s 5s 7
mph
1013.7mb 70f 73f
10:50 1ft 8s 5s 9 11 mph 1013.1mb 70f 74f
9:50 1ft 9s 5s 11 13 mph 1013mb 70f 75f
8:50 1.3ft 10s 4s 9 11 mph 1012.9mb 71f 74f
7:50 1.3ft 8s 4s 13
mph
1012.4mb 71f 76f
6:50 1.3ft 8s 4s 11 13 mph 1011.9mb 71f 77f
5:50 1.3ft 9s 3s 11 13 mph 1011.8mb 71f 77f
4:50 1ft 10s 4s 11 13 mph 1011.5mb 71f 77f
3:50 1ft 9s 6s 11 13 mph 1011.5mb 72f 78f
2:50 0.7ft  -  5s 9 11 mph 1011.9mb 72f 78f
1:50 1ft 10s 5s 7
mph
1012.8mb 72f 78f
12:50 1ft 9s 6s 7
mph
1013.5mb 71f 76f
11:50 1ft 9s 6s 7
mph
1014.4mb 71f 74f
10:50 1.3ft 9s 6s 9
mph
1014.8mb 70f 73f
9:50 1.3ft 10s 6s 7
mph
1015mb 70f 72f
8:50 1.3ft 10s 7s 9 11 mph 1015.2mb 70f 71f
7:50 1.3ft 9s 7s 11
mph
1015.1mb 70f 71f
6:50 1.3ft 8s 6s 11
mph
1015.1mb 70f 70f
5:50 1.3ft 10s 6s 9 11 mph 1014.8mb 70f 70f
4:50 1ft 8s 5s 13
mph
1014.7mb 71f 71f
3:50 1ft 9s 6s 7 9 mph 1014.9mb 71f 71f
2:50 1ft 9s 6s 7 9 mph 1015.1mb 71f 71f
1:50 1ft 9s 6s 7 9 mph 1015.4mb 71f 72f
12:50 1.3ft 10s 7s 7 9 mph 1015.7mb 71f 73f
dim. 08/30 11:50 1.3ft 10s 7s 9
mph
1015.9mb 71f 73f
10:50 1.3ft 9s 6s 7
mph
1016.2mb 72f 73f
9:50 1.3ft 9s 6s 7 11 mph 1016.4mb 72f 73f
8:50 1.3ft 9s 6s 2 4 mph 1016.5mb 72f 71f
7:50 1.3ft 10s 6s 4
mph
1016mb 72f 72f
6:50 1.3ft 11s 6s 7
mph
1015.8mb 72f 72f
5:50 1.3ft 10s 6s 7 9 mph 1016mb 73f 73f
4:50 1.3ft 10s 6s 7 9 mph 1016mb 72f 74f
3:50 1.3ft 10s 5s 9 11 mph 1016.3mb 72f 74f
2:50 1.3ft 10s 5s 7 9 mph 1016.8mb 73f 74f
1:50 1.3ft 10s 5s 4 7 mph 1017.1mb 73f 74f
12:50 1.3ft 10s 6s 2
mph
1017.6mb 72f 75f
11:50 1.3ft 10s 6s 7 9 mph 1018.3mb 71f 72f
10:50 1.6ft 9s 6s 7 9 mph 1018.2mb 71f 71f
9:50 1.6ft 10s 5s 7
mph
1018.5mb 70f 70f
8:50 2ft 9s 6s 11 13 mph 1018.3mb 70f 69f
7:50 2ft 10s 5s 11 13 mph 1018.4mb 70f 68f
6:50 1.6ft 9s 5s 13 16 mph 1018.4mb 70f 68f
5:50 1.6ft 11s 5s 13 16 mph 1017.9mb 70f 68f
4:50 2ft 11s 6s 11 13 mph 1018mb 70f 69f
3:50 1.6ft 10s 5s 9 13 mph 1018.1mb 70f 69f
2:50 1.6ft 11s 5s 11 13 mph 1018.3mb 70f 69f